createdAt,value
2023-04-21T00:02:00.913Z,100382.28
2023-04-21T00:04:29.789Z,100380.84
2023-04-21T00:06:58.532Z,100373.66
2023-04-21T00:09:27.994Z,100320.56
2023-04-21T00:11:56.347Z,100365.69
2023-04-21T00:14:24.310Z,100366.25
2023-04-21T00:16:53.373Z,100364.81
2023-04-21T00:19:21.662Z,100360.63
2023-04-21T00:21:49.532Z,100351.25
2023-04-21T00:24:17.460Z,100358.03
2023-04-21T00:26:46.668Z,100351.13
2023-04-21T00:29:14.613Z,100346.19
2023-04-21T00:31:42.545Z,100327.56
2023-04-21T00:34:10.798Z,100336.97
2023-04-21T00:36:38.617Z,100336.00
2023-04-21T00:39:07.183Z,100341.44
2023-04-21T00:41:38.624Z,100318.09
2023-04-21T00:44:08.976Z,100339.88
2023-04-21T00:46:38.632Z,100344.41
2023-04-21T00:49:08.487Z,100346.41
2023-04-21T00:51:38.581Z,100318.25
2023-04-21T00:54:10.454Z,100332.06
2023-04-21T00:56:38.253Z,100332.56
2023-04-21T00:59:07.750Z,100303.53
2023-04-21T01:01:36.546Z,100305.53
2023-04-21T01:04:05.954Z,100334.25
2023-04-21T01:06:34.696Z,100330.59
2023-04-21T01:09:05.284Z,100334.84
2023-04-21T01:11:33.295Z,100337.53
2023-04-21T01:14:01.547Z,100340.47
2023-04-21T01:16:32.636Z,100214.47
2023-04-21T01:19:01.382Z,100320.72
2023-04-21T01:21:32.109Z,100335.63
2023-04-21T01:24:03.838Z,100335.97
2023-04-21T01:26:31.633Z,100315.00
2023-04-21T01:28:59.451Z,100329.16
2023-04-21T01:31:29.258Z,100345.78
2023-04-21T01:33:57.113Z,100355.69
2023-04-21T01:36:24.971Z,100311.59
2023-04-21T01:38:53.530Z,100348.03
2023-04-21T01:41:24.888Z,100346.22
2023-04-21T01:43:55.510Z,100346.66
2023-04-21T01:46:25.341Z,100335.88
2023-04-21T01:48:53.348Z,100344.16
2023-04-21T01:51:21.158Z,100343.81
2023-04-21T01:53:48.942Z,100337.78
2023-04-21T01:56:18.908Z,100345.06
2023-04-21T01:58:48.362Z,100336.97
2023-04-21T02:01:16.326Z,100313.19
2023-04-21T02:03:44.292Z,100332.41
2023-04-21T02:06:13.994Z,100338.09
2023-04-21T02:08:41.814Z,100344.69
2023-04-21T02:11:09.800Z,100342.00
2023-04-21T02:13:37.653Z,100343.81
2023-04-21T02:16:13.321Z,100324.78
2023-04-21T02:18:42.403Z,100351.88
2023-04-21T02:21:10.241Z,100340.63
2023-04-21T02:23:38.038Z,100346.88
2023-04-21T02:26:06.380Z,100344.53
2023-04-21T02:28:34.189Z,100341.66
2023-04-21T02:31:02.137Z,100335.19
2023-04-21T02:33:31.442Z,100329.91
2023-04-21T02:35:59.397Z,100337.09
2023-04-21T02:38:27.299Z,100345.22
2023-04-21T02:40:55.167Z,100347.72
2023-04-21T02:43:22.991Z,100348.03
2023-04-21T02:45:50.886Z,100324.72
2023-04-21T02:48:22.912Z,100345.50
2023-04-21T02:50:54.022Z,100349.97
2023-04-21T02:53:21.976Z,100338.50
2023-04-21T02:55:49.808Z,100343.44
2023-04-21T02:58:17.687Z,100349.53
2023-04-21T03:00:45.918Z,100349.56
2023-04-21T03:03:13.900Z,100343.75
2023-04-21T03:05:43.575Z,100338.41
2023-04-21T03:08:12.778Z,100341.22
2023-04-21T03:10:40.778Z,100344.06
2023-04-21T03:13:08.592Z,100210.25
2023-04-21T03:15:36.435Z,100331.16
2023-04-21T03:18:04.303Z,100348.31
2023-04-21T03:20:32.138Z,100352.41
2023-04-21T03:22:59.969Z,100348.75
2023-04-21T03:25:29.508Z,100348.41
2023-04-21T03:27:57.645Z,100344.81
2023-04-21T03:30:26.968Z,100345.19
2023-04-21T03:32:55.743Z,100347.41
2023-04-21T03:35:23.723Z,100344.66
2023-04-21T03:37:51.810Z,100342.25
2023-04-21T03:40:19.791Z,100343.75
2023-04-21T03:42:48.970Z,100339.91
2023-04-21T03:45:19.526Z,100349.72
2023-04-21T03:47:47.372Z,100346.47
2023-04-21T03:50:15.394Z,100344.63
2023-04-21T03:52:43.178Z,100346.19
2023-04-21T03:55:12.071Z,100348.75
2023-04-21T03:57:41.277Z,100344.09
2023-04-21T04:00:11.670Z,100246.97
2023-04-21T04:02:43.823Z,100327.53
2023-04-21T04:05:11.892Z,100332.66
2023-04-21T04:07:39.694Z,100329.28
2023-04-21T04:10:07.839Z,100338.31
2023-04-21T04:12:35.635Z,100334.00
2023-04-21T04:15:03.732Z,100346.53
2023-04-21T04:17:32.972Z,100348.94
2023-04-21T04:20:01.828Z,100345.22
2023-04-21T04:22:29.663Z,100339.84
2023-04-21T04:24:59.840Z,100346.94
2023-04-21T04:27:29.526Z,100339.63
2023-04-21T04:29:57.670Z,100348.59
2023-04-21T04:32:28.615Z,100350.34
2023-04-21T04:34:58.868Z,100323.34
2023-04-21T04:37:26.763Z,100347.72
2023-04-21T04:39:54.602Z,100341.38
2023-04-21T04:42:22.448Z,100341.06
2023-04-21T04:44:50.569Z,100337.28
2023-04-21T04:47:18.340Z,100343.19
2023-04-21T04:49:46.183Z,100313.34
2023-04-21T04:52:15.514Z,100264.94
2023-04-21T04:54:43.416Z,100334.09
2023-04-21T04:57:11.228Z,100337.31
2023-04-21T04:59:39.128Z,100329.91
2023-04-21T05:02:08.581Z,100334.53
2023-04-21T05:04:36.671Z,100332.91
2023-04-21T05:07:06.063Z,100340.16
2023-04-21T05:09:35.872Z,100332.19
2023-04-21T05:12:04.025Z,100328.88
2023-04-21T05:14:31.780Z,100343.25
2023-04-21T05:16:59.671Z,100327.63
2023-04-21T05:19:27.578Z,100311.59
2023-04-21T05:22:00.693Z,100354.91
2023-04-21T05:24:28.910Z,100353.38
2023-04-21T05:26:58.141Z,100349.63
2023-04-21T05:29:26.045Z,100354.28
2023-04-21T05:31:53.950Z,100355.28
2023-04-21T05:34:22.154Z,100348.16
2023-04-21T05:36:50.091Z,100362.53
2023-04-21T05:39:18.159Z,100362.38
2023-04-21T05:41:46.094Z,100361.16
2023-04-21T05:44:17.678Z,100373.59
2023-04-21T05:46:45.956Z,100357.97
2023-04-21T05:49:13.981Z,100331.88
2023-04-21T05:51:42.378Z,100365.09
2023-04-21T05:54:10.220Z,100358.44
2023-04-21T05:56:38.314Z,100353.41
2023-04-21T05:59:06.902Z,100355.69
2023-04-21T06:01:37.474Z,100347.66
2023-04-21T06:04:05.624Z,100356.78
2023-04-21T06:06:33.849Z,100350.47
2023-04-21T06:09:01.989Z,100346.72
2023-04-21T06:11:29.730Z,100360.16
2023-04-21T06:13:59.468Z,100349.06
2023-04-21T06:16:27.913Z,100342.09
2023-04-21T06:18:58.901Z,100327.59
2023-04-21T06:21:26.895Z,100358.00
2023-04-21T06:23:54.750Z,100352.97
2023-04-21T06:26:22.732Z,100348.97
2023-04-21T06:28:50.657Z,100354.41
2023-04-21T06:31:19.816Z,100351.78
2023-04-21T06:33:47.807Z,100343.75
2023-04-21T06:36:18.102Z,100349.19
2023-04-21T06:38:46.348Z,100353.66
2023-04-21T06:41:14.104Z,100355.69
2023-04-21T06:43:42.095Z,100345.44
2023-04-21T06:46:09.936Z,100344.56
2023-04-21T06:48:37.694Z,100347.28
2023-04-21T06:51:05.804Z,100338.88
2023-04-21T06:53:35.183Z,100333.50
2023-04-21T06:56:03.060Z,100340.50
2023-04-21T06:58:30.826Z,100336.34
2023-04-21T07:00:58.659Z,100333.59
2023-04-21T07:03:26.579Z,100344.53
2023-04-21T07:05:54.518Z,100345.13
2023-04-21T07:08:22.366Z,100336.81
2023-04-21T07:10:51.530Z,100206.19
2023-04-21T07:13:19.569Z,100328.75
2023-04-21T07:15:47.534Z,100322.16
2023-04-21T07:18:15.481Z,100321.59
2023-04-21T07:20:43.425Z,100328.34
2023-04-21T07:23:11.251Z,100333.19
2023-04-21T07:25:39.153Z,100336.94
2023-04-21T07:28:08.295Z,100327.31
2023-04-21T07:30:37.133Z,100333.00
2023-04-21T07:33:05.114Z,100332.75
2023-04-21T07:35:32.927Z,100343.72
2023-04-21T07:38:00.761Z,100339.94
2023-04-21T07:40:28.799Z,100338.94
2023-04-21T07:42:56.792Z,100344.00
2023-04-21T07:45:26.427Z,100340.22
2023-04-21T07:47:54.762Z,100332.53
2023-04-21T07:50:22.590Z,100298.00
2023-04-21T07:52:50.596Z,100335.28
2023-04-21T07:55:18.510Z,100328.53
2023-04-21T07:57:46.336Z,100290.84
2023-04-21T08:00:15.872Z,100337.03
2023-04-21T08:02:45.087Z,100330.06
2023-04-21T08:05:13.316Z,100307.13
2023-04-21T08:07:41.143Z,100317.25
2023-04-21T08:10:10.326Z,100322.50
2023-04-21T08:12:40.169Z,100307.38
2023-04-21T08:15:08.813Z,100313.06
2023-04-21T08:17:36.642Z,100313.53
2023-04-21T08:20:06.988Z,100300.47
2023-04-21T08:22:35.813Z,100295.63
2023-04-21T08:25:03.882Z,100296.47
2023-04-21T08:27:31.633Z,100306.56
2023-04-21T08:30:00.228Z,100298.94
2023-04-21T08:32:28.106Z,100298.28
2023-04-21T08:34:56.163Z,100303.94
2023-04-21T08:37:25.667Z,100302.53
2023-04-21T08:39:54.434Z,100297.69
2023-04-21T08:42:22.308Z,100261.91
2023-04-21T08:44:50.287Z,100300.56
2023-04-21T08:47:18.386Z,100170.44
2023-04-21T08:49:46.383Z,100246.09
2023-04-21T08:52:14.773Z,100197.50
2023-04-21T08:54:44.236Z,100306.13
2023-04-21T08:57:15.923Z,100292.22
2023-04-21T08:59:46.083Z,100288.50
2023-04-21T09:02:16.235Z,100298.53
2023-04-21T09:04:46.444Z,100293.91
2023-04-21T09:07:30.743Z,100289.94
2023-04-21T09:10:01.324Z,100294.13
2023-04-21T09:12:30.412Z,100284.25
2023-04-21T09:14:59.137Z,100281.53
2023-04-21T09:17:32.659Z,100290.22
2023-04-21T09:20:14.598Z,100261.88
2023-04-21T09:22:42.551Z,100273.25
2023-04-21T09:25:16.696Z,100279.78
2023-04-21T09:27:45.061Z,100272.28
2023-04-21T09:30:13.532Z,100265.69
2023-04-21T09:32:41.766Z,100239.13
2023-04-21T09:35:11.929Z,100252.06
2023-04-21T09:37:40.334Z,100265.06
2023-04-21T09:40:08.949Z,100262.94
2023-04-21T09:42:39.632Z,100267.13
2023-04-21T09:45:28.932Z,100262.63
2023-04-21T09:48:00.441Z,100247.75
2023-04-21T09:50:44.782Z,100247.53
2023-04-21T09:53:22.807Z,100213.28
2023-04-21T09:55:56.356Z,100265.19
2023-04-21T09:58:29.148Z,100255.88
2023-04-21T10:00:58.431Z,100257.09
2023-04-21T10:03:28.860Z,100161.31
2023-04-21T10:05:57.418Z,100246.00
2023-04-21T10:08:25.284Z,100198.38
2023-04-21T10:10:54.428Z,100250.00
2023-04-21T10:13:23.434Z,100237.19
2023-04-21T10:16:03.056Z,100238.00
2023-04-21T10:18:30.957Z,100219.19
2023-04-21T10:21:02.821Z,100230.28
2023-04-21T10:23:32.154Z,100129.22
2023-04-21T10:26:04.593Z,100133.09
2023-04-21T10:28:41.244Z,100210.16
2023-04-21T10:31:31.423Z,100207.78
2023-04-21T10:34:30.466Z,100192.34
2023-04-21T10:37:18.931Z,100202.22
2023-04-21T10:39:53.761Z,100146.47
2023-04-21T10:42:24.640Z,100191.31
2023-04-21T10:44:54.644Z,100194.81
2023-04-21T10:47:34.358Z,100188.31
2023-04-21T10:50:13.179Z,100181.03
2023-04-21T10:52:44.419Z,100176.66
2023-04-21T10:55:13.322Z,100173.72
2023-04-21T10:57:43.910Z,100161.19
2023-04-21T11:00:15.605Z,100156.38
2023-04-21T11:02:45.381Z,100149.91
2023-04-21T11:05:14.084Z,100164.25
2023-04-21T11:07:41.984Z,100144.53
2023-04-21T11:10:11.383Z,100154.06
2023-04-21T11:12:40.801Z,100145.75
2023-04-21T11:15:10.761Z,100121.13
2023-04-21T11:17:39.949Z,100133.97
2023-04-21T11:20:10.533Z,100129.66
2023-04-21T11:22:39.058Z,100128.97
2023-04-21T11:25:17.505Z,100116.59
2023-04-21T11:27:54.859Z,100112.94
2023-04-21T11:30:23.277Z,100113.56
2023-04-21T11:32:56.037Z,100091.91
2023-04-21T11:35:25.905Z,100105.09
2023-04-21T11:37:53.777Z,100005.50
2023-04-21T11:40:23.059Z,100099.28
2023-04-21T11:42:51.628Z,100102.34
2023-04-21T11:45:22.427Z,100105.03
2023-04-21T11:47:51.010Z,100072.41
2023-04-21T11:50:33.191Z,100090.97
2023-04-21T11:53:03.506Z,100102.84
2023-04-21T11:55:31.395Z,100095.44
2023-04-21T11:57:59.356Z,100095.19
2023-04-21T12:00:31.921Z,100067.53
2023-04-21T12:02:59.925Z,100095.50
2023-04-21T12:05:37.958Z,100071.72
2023-04-21T12:08:06.376Z,100105.31
2023-04-21T12:10:34.323Z,100100.09
2023-04-21T12:13:02.060Z,100076.50
2023-04-21T12:15:32.140Z,100061.53
2023-04-21T12:18:00.125Z,100084.75
2023-04-21T12:20:31.166Z,100083.63
2023-04-21T12:23:01.142Z,100074.06
2023-04-21T12:25:29.248Z,100084.31
2023-04-21T12:27:59.925Z,100040.75
2023-04-21T12:30:27.893Z,100034.94
2023-04-21T12:32:55.971Z,100068.16
2023-04-21T12:35:23.976Z,100058.88
2023-04-21T12:37:51.908Z,100059.00
2023-04-21T12:40:21.171Z,100059.19
2023-04-21T12:42:49.638Z,100020.22
2023-04-21T12:45:17.590Z,100056.28
2023-04-21T12:47:46.891Z,100035.09
2023-04-21T12:50:15.197Z,100069.44
2023-04-21T12:52:43.034Z,100048.31
2023-04-21T12:55:13.342Z,100047.56
2023-04-21T12:57:42.357Z,100053.88
2023-04-21T13:00:14.766Z,100045.75
2023-04-21T13:02:42.838Z,100048.41
2023-04-21T13:05:12.720Z,100054.13
2023-04-21T13:07:41.563Z,100045.88
2023-04-21T13:10:10.201Z,100044.63
2023-04-21T13:12:38.367Z,100039.19
2023-04-21T13:15:09.137Z,100054.16
2023-04-21T13:17:37.079Z,100014.63
2023-04-21T13:20:07.248Z,100027.41
2023-04-21T13:22:35.645Z,100044.28
2023-04-21T13:25:04.523Z,100035.41
2023-04-21T13:27:33.386Z,100036.91
2023-04-21T13:30:01.407Z,100029.38
2023-04-21T13:32:30.650Z,99936.66
2023-04-21T13:34:58.480Z,99981.91
2023-04-21T13:37:26.929Z,100003.28
2023-04-21T13:39:54.722Z,100002.41
2023-04-21T13:42:22.589Z,100006.50
2023-04-21T13:44:50.481Z,100002.56
2023-04-21T13:47:18.346Z,100029.72
2023-04-21T13:49:47.530Z,100019.69
2023-04-21T13:52:15.336Z,99995.09
2023-04-21T13:54:43.283Z,99981.91
2023-04-21T13:57:11.344Z,100014.41
2023-04-21T13:59:39.445Z,99996.06
2023-04-21T14:02:07.979Z,99997.06
2023-04-21T14:04:36.556Z,99967.25
2023-04-21T14:07:07.984Z,99997.03
2023-04-21T14:09:36.030Z,99996.78
2023-04-21T14:12:04.374Z,99988.75
2023-04-21T14:17:05.665Z,99989.00
2023-04-21T14:19:33.998Z,99983.09
2023-04-21T14:22:02.112Z,99978.97
2023-04-21T14:24:32.363Z,99963.88
2023-04-21T14:27:01.103Z,99929.94
2023-04-21T14:29:28.987Z,99980.03
2023-04-21T14:31:58.605Z,99969.78
2023-04-21T14:34:26.833Z,99961.38
2023-04-21T14:36:55.195Z,99958.44
2023-04-21T14:39:23.277Z,99963.78
2023-04-21T14:41:53.338Z,99953.69
2023-04-21T14:44:21.329Z,99948.94
2023-04-21T14:47:01.008Z,99946.59
2023-04-21T14:49:34.171Z,99918.13
2023-04-21T14:52:03.533Z,99948.22
2023-04-21T14:54:31.567Z,99906.59
2023-04-21T14:57:17.422Z,99896.31
2023-04-21T14:59:47.455Z,99949.91
2023-04-21T15:02:15.665Z,99939.59
2023-04-21T15:04:43.770Z,99934.69
2023-04-21T15:07:11.767Z,99934.47
2023-04-21T15:09:41.079Z,99938.94
2023-04-21T15:12:12.717Z,99924.75
2023-04-21T15:14:40.647Z,99928.72
2023-04-21T15:17:08.715Z,99923.66
2023-04-21T15:19:36.739Z,99923.34
2023-04-21T15:22:05.804Z,99926.59
2023-04-21T15:24:33.568Z,99914.22
2023-04-21T15:27:02.245Z,99906.91
2023-04-21T15:29:31.448Z,99915.13
2023-04-21T15:31:59.298Z,99920.06
2023-04-21T15:34:27.084Z,99904.22
2023-04-21T15:36:54.922Z,99913.91
2023-04-21T15:39:22.746Z,99906.00
2023-04-21T15:41:50.800Z,99897.63
2023-04-21T15:44:18.771Z,99891.66
2023-04-21T15:46:48.229Z,99886.56
2023-04-21T15:49:16.068Z,99894.03
2023-04-21T15:51:44.080Z,99880.16
2023-04-21T15:54:12.061Z,99893.84
2023-04-21T15:56:40.311Z,99887.03
2023-04-21T15:59:08.118Z,99878.00
2023-04-21T16:01:36.092Z,99880.56
2023-04-21T16:04:06.358Z,99874.91
2023-04-21T16:06:34.936Z,99872.56
2023-04-21T16:09:03.314Z,99869.88
2023-04-21T16:11:31.108Z,99867.38
2023-04-21T16:13:59.074Z,99868.84
2023-04-21T16:16:27.034Z,99863.13
2023-04-21T16:18:55.094Z,99856.50
2023-04-21T16:21:24.389Z,99849.28
2023-04-21T16:23:52.262Z,99856.44
2023-04-21T16:26:20.200Z,99856.91
2023-04-21T16:28:48.140Z,99844.22
2023-04-21T16:31:16.249Z,99856.44
2023-04-21T16:33:44.069Z,99852.81
2023-04-21T16:36:12.038Z,99845.38
2023-04-21T16:38:41.268Z,99856.44
2023-04-21T16:41:09.241Z,99846.25
2023-04-21T16:43:37.387Z,99848.41
2023-04-21T16:46:05.295Z,99846.81
2023-04-21T16:48:33.257Z,99839.66
2023-04-21T16:51:01.147Z,99840.78
2023-04-21T16:53:29.011Z,99835.78
2023-04-21T16:55:58.506Z,99837.69
2023-04-21T16:58:26.458Z,99834.94
2023-04-21T17:00:54.327Z,99825.41
2023-04-21T17:03:22.590Z,99839.13
2023-04-21T17:05:50.732Z,99823.94
2023-04-21T17:08:18.597Z,99832.56
2023-04-21T17:10:46.484Z,99840.13
2023-04-21T17:13:15.615Z,99835.94
2023-04-21T17:15:43.514Z,99834.31
2023-04-21T17:18:11.523Z,99835.34
2023-04-21T17:20:39.536Z,99830.56
2023-04-21T17:23:07.500Z,99832.31
2023-04-21T17:25:38.098Z,99831.69
2023-04-21T17:28:06.437Z,99821.63
2023-04-21T17:30:36.343Z,99823.53
2023-04-21T17:33:16.121Z,99811.25
2023-04-21T17:35:56.193Z,99834.81
2023-04-21T17:38:29.871Z,99814.94
2023-04-21T17:40:57.676Z,99800.28
2023-04-21T17:43:25.566Z,99821.88
2023-04-21T17:45:54.802Z,99815.34
2023-04-21T17:48:22.655Z,99812.28
2023-04-21T17:50:50.635Z,99748.38
2023-04-21T17:53:18.895Z,99814.75
2023-04-21T17:55:46.739Z,99817.47
2023-04-21T17:58:14.678Z,99827.03
2023-04-21T18:00:42.569Z,99792.03
2023-04-21T18:03:11.943Z,99796.97
2023-04-21T18:05:40.672Z,99818.75
2023-04-21T18:08:08.761Z,99824.19
2023-04-21T18:10:37.324Z,99825.78
2023-04-21T18:13:06.128Z,99817.75
2023-04-21T18:15:34.129Z,99831.91
2023-04-21T18:18:02.120Z,99830.06
2023-04-21T18:20:31.491Z,99825.53
2023-04-21T18:22:59.500Z,99820.75
2023-04-21T18:25:41.512Z,99821.97
2023-04-21T18:28:12.399Z,99819.00
2023-04-21T18:30:40.561Z,99809.59
2023-04-21T18:33:08.523Z,99826.03
2023-04-21T18:35:38.110Z,99751.97
2023-04-21T18:38:08.006Z,99827.28
2023-04-21T18:40:37.038Z,99831.59
2023-04-21T18:43:05.256Z,99832.19
2023-04-21T18:45:33.915Z,99790.78
2023-04-21T18:48:01.921Z,99843.59
2023-04-21T18:50:30.172Z,99813.97
2023-04-21T18:52:59.926Z,99836.75
2023-04-21T18:55:27.747Z,99836.47
2023-04-21T18:57:55.609Z,99834.16
2023-04-21T19:00:23.899Z,99809.94
2023-04-21T19:02:52.116Z,99840.44
2023-04-21T19:05:20.463Z,99847.22
2023-04-21T19:07:48.510Z,99842.44
2023-04-21T19:10:18.302Z,99840.38
2023-04-21T19:12:46.099Z,99833.91
2023-04-21T19:15:14.084Z,99840.72
2023-04-21T19:17:42.179Z,99832.28
2023-04-21T19:20:11.271Z,99845.06
2023-04-21T19:22:39.302Z,99844.50
2023-04-21T19:25:08.584Z,99843.13
2023-04-21T19:27:38.136Z,99837.59
2023-04-21T19:30:07.102Z,99842.28
2023-04-21T19:32:35.094Z,99835.03
2023-04-21T19:35:02.948Z,99836.94
2023-04-21T19:37:33.532Z,99814.22
2023-04-21T19:40:03.179Z,99843.69
2023-04-21T19:42:31.525Z,99828.34
2023-04-21T19:45:00.731Z,99840.47
2023-04-21T19:47:28.494Z,99842.84
2023-04-21T19:49:56.460Z,99830.03
2023-04-21T19:52:24.336Z,99824.25
2023-04-21T19:54:52.531Z,99836.91
2023-04-21T19:57:20.564Z,99835.16
2023-04-21T19:59:49.024Z,99831.59
2023-04-21T20:02:19.457Z,99802.56
2023-04-21T20:04:48.743Z,99818.56
2023-04-21T20:07:17.473Z,99830.19
2023-04-21T20:09:45.469Z,99829.25
2023-04-21T20:12:13.263Z,99830.56
2023-04-21T20:14:41.131Z,99819.31
2023-04-21T20:17:08.982Z,99826.53
2023-04-21T20:19:40.576Z,99822.13
2023-04-21T20:22:08.672Z,99823.94
2023-04-21T20:24:36.555Z,99822.00
2023-04-21T20:27:07.190Z,99825.47
2023-04-21T20:29:36.746Z,99821.03
2023-04-21T20:32:04.816Z,99828.34
2023-04-21T20:34:32.741Z,99797.84
2023-04-21T20:37:03.830Z,99836.06
2023-04-21T20:39:31.661Z,99797.22
2023-04-21T20:42:11.926Z,99837.56
2023-04-21T20:44:42.498Z,99833.63
2023-04-21T20:47:11.465Z,99826.50
2023-04-21T20:49:39.979Z,99831.75
2023-04-21T20:52:09.695Z,99840.22
2023-04-21T20:54:38.282Z,99831.56
2023-04-21T20:57:07.337Z,99708.03
2023-04-21T20:59:35.559Z,99833.69
2023-04-21T21:02:03.625Z,99825.09
2023-04-21T21:04:31.653Z,99814.53
2023-04-21T21:06:59.781Z,99826.88
2023-04-21T21:09:29.037Z,99819.31
2023-04-21T21:11:56.862Z,99819.09
2023-04-21T21:14:24.735Z,99777.16
2023-04-21T21:16:54.507Z,99817.78
2023-04-21T21:19:22.424Z,99814.34
2023-04-21T21:21:50.155Z,99797.47
2023-04-21T21:24:17.986Z,99810.03
2023-04-21T21:26:47.132Z,99737.25
2023-04-21T21:29:14.986Z,99789.06
2023-04-21T21:31:43.207Z,99777.94
2023-04-21T21:34:11.117Z,99808.41
2023-04-21T21:36:38.906Z,99808.28
2023-04-21T21:39:09.594Z,99817.91
2023-04-21T21:41:38.932Z,99808.81
2023-04-21T21:44:08.754Z,99818.78
2023-04-21T21:46:36.759Z,99812.75
2023-04-21T21:49:04.787Z,99812.44
2023-04-21T21:51:32.698Z,99809.72
2023-04-21T21:54:00.615Z,99805.81
2023-04-21T21:56:28.587Z,99811.31
2023-04-21T21:58:56.462Z,99805.28
2023-04-21T22:01:25.882Z,99772.94
2023-04-21T22:03:54.187Z,99783.34
2023-04-21T22:06:24.382Z,99788.81
2023-04-21T22:08:52.723Z,99759.69
2023-04-21T22:11:20.806Z,99798.78
2023-04-21T22:13:48.689Z,99755.97
2023-04-21T22:16:16.909Z,99800.63
2023-04-21T22:18:47.277Z,99796.16
2023-04-21T22:21:14.948Z,99792.28
2023-04-21T22:23:42.745Z,99793.91
2023-04-21T22:26:10.709Z,99803.72
2023-04-21T22:28:38.553Z,99811.06
2023-04-21T22:31:06.742Z,99801.00
2023-04-21T22:33:34.664Z,99800.19
2023-04-21T22:36:03.838Z,99809.06
2023-04-21T22:38:31.713Z,99792.63
2023-04-21T22:40:59.508Z,99807.38
2023-04-21T22:43:27.448Z,99780.84
2023-04-21T22:45:55.520Z,99812.28
2023-04-21T22:48:26.163Z,99809.88
2023-04-21T22:50:54.355Z,99801.66
2023-04-21T22:53:23.583Z,99805.69
2023-04-21T22:55:51.504Z,99800.44
2023-04-21T22:58:19.900Z,99788.69
2023-04-21T23:00:47.803Z,99792.25
2023-04-21T23:03:16.028Z,99784.09
2023-04-21T23:05:43.956Z,99782.91
2023-04-21T23:08:11.848Z,99765.78
2023-04-21T23:10:41.471Z,99777.25
2023-04-21T23:13:09.622Z,99674.13
2023-04-21T23:15:37.555Z,99777.59
2023-04-21T23:18:05.559Z,99678.06
2023-04-21T23:20:33.734Z,99770.31
2023-04-21T23:23:01.615Z,99766.19
2023-04-21T23:25:29.591Z,99762.66
2023-04-21T23:27:58.752Z,99737.03
2023-04-21T23:30:26.700Z,99750.78
2023-04-21T23:32:54.820Z,99773.72
2023-04-21T23:35:22.843Z,99761.06
2023-04-21T23:37:50.576Z,99782.59
2023-04-21T23:40:18.614Z,99766.25
2023-04-21T23:42:47.475Z,99768.84
2023-04-21T23:45:17.097Z,99778.88
2023-04-21T23:47:45.541Z,99780.91
2023-04-21T23:50:13.589Z,99777.06
2023-04-21T23:52:42.109Z,99777.66
2023-04-21T23:55:11.847Z,99741.13
2023-04-21T23:57:39.833Z,99783.97
